Ana Sayfa
METAR-TAF:

METAR-TAF

Havaalanları :

Tôlanaro, Madagaskar

Enlem: 25-02S, Boylam: 046-57E, yükseklik: 8 m

Güncel hava durumu gözlemi

Rapor saat 16:00 UTC de 1 saat ve 12 dakika önce yapıldı.
Rüzgar doğudan 12 kt
Sıcaklık 25°C
Nem 94%
Basınç 1009 hPa
Görüş mesafesi: 8000 m
1600 ft yükseklikte az bulutlu
3300 ft yükseklikte parçalı çok bulutlu
Civarda sağanaklar

METAR: FMSD 111600Z 08012KT 8000 VCSH FEW016 BKN033 25/24 Q1009

Saat: 20:12 (17:12 UTC)

Tahmin

Rapor saat 11:00 UTC de 6 saat ve 12 dakika önce yapıldı.
Ayın 11'si saat 12 UTC'den ayın 12'si saat 12 UTC'ye kadar geçerli Tahmin
Rüzgar doğudan 14 kt
Görüş mesafesi: 8000 m
1600 ft yükseklikte parçalı bulutlu
3300 ft yükseklikte parçalı çok bulutlu
Geçici
ayın 11'si saat 12 UTC'den ayın 12'si saat 04 UTC'ye kadar
Görüş mesafesi: 4000 m
yağmur

TAF: FMSD 111100Z 1112/1212 08014KT 8000 SCT016 BKN033 TEMPO 1112/1204 4000 RA

4.000'den fazla havaalanı için hava durumu gözlemleri ve tahminleri (METAR ve TAF raporları).

Kullanılabilir istasyonlar harita üzerinde sarı ve kırmızı noktalarla gösterilir.

İstasyonun adını görmek için fareyi noktanın üzerinde gezdirin.

Sonrasında hava gözlem ve tahminlerini görmek için tıklayın.

Haritayı değiştirmek için: yaklaştırmak için siyah artı işaretli yeşil düğmeye ve uzaklaştırmak için de eksi işaretli düğmeye hızla tıklayın; bitişik haritalar için yeşil okları kullanın.


METAR-TAF: